sensor_id;sensor_type;location;lat;lon;timestamp;pressure;altitude;pressure_sealevel;temperature;humidity
29433;BME280;16405;53.964;13.448;2023-04-02T00:01:38;101151.66;;;1.85;78.04
29433;BME280;16405;53.964;13.448;2023-04-02T00:04:14;101147.31;;;1.85;78.09
29433;BME280;16405;53.964;13.448;2023-04-02T00:07:35;101157.78;;;1.73;77.29
29433;BME280;16405;53.964;13.448;2023-04-02T00:09:38;101159.50;;;1.77;77.74
29433;BME280;16405;53.964;13.448;2023-04-02T00:12:18;101167.28;;;1.73;77.56
29433;BME280;16405;53.964;13.448;2023-04-02T00:14:53;101169.94;;;1.56;77.93
29433;BME280;16405;53.964;13.448;2023-04-02T00:17:22;101182.91;;;1.47;78.55
29433;BME280;16405;53.964;13.448;2023-04-02T00:20:01;101182.91;;;1.47;77.90
29433;BME280;16405;53.964;13.448;2023-04-02T00:22:41;101180.34;;;1.51;77.84
29433;BME280;16405;53.964;13.448;2023-04-02T00:25:14;101185.53;;;1.56;77.64
29433;BME280;16405;53.964;13.448;2023-04-02T00:27:41;101177.72;;;1.54;77.62
29433;BME280;16405;53.964;13.448;2023-04-02T00:30:12;101178.59;;;1.56;77.90
29433;BME280;16405;53.964;13.448;2023-04-02T00:32:42;101191.56;;;1.55;77.30
29433;BME280;16405;53.964;13.448;2023-04-02T00:35:25;101196.75;;;1.56;77.84
29433;BME280;16405;53.964;13.448;2023-04-02T00:37:52;101195.03;;;1.57;78.56
29433;BME280;16405;53.964;13.448;2023-04-02T00:40:28;101198.50;;;1.48;78.33
29433;BME280;16405;53.964;13.448;2023-04-02T00:42:58;101201.94;;;1.49;78.38
29433;BME280;16405;53.964;13.448;2023-04-02T00:45:34;101209.75;;;1.42;78.29
29433;BME280;16405;53.964;13.448;2023-04-02T00:48:38;101208.88;;;1.37;78.42
29433;BME280;16405;53.964;13.448;2023-04-02T00:51:25;101205.41;;;1.44;78.56
29433;BME280;16405;53.964;13.448;2023-04-02T00:53:55;101206.31;;;1.40;78.53
29433;BME280;16405;53.964;13.448;2023-04-02T00:56:44;101207.16;;;1.41;78.19
29433;BME280;16405;53.964;13.448;2023-04-02T00:59:37;101209.75;;;1.42;78.41
29433;BME280;16405;53.964;13.448;2023-04-02T01:05:01;101212.31;;;1.56;78.46
29433;BME280;16405;53.964;13.448;2023-04-02T01:19:14;101232.19;;;1.82;79.23
29433;BME280;16405;53.964;13.448;2023-04-02T01:24:42;101242.59;;;1.77;78.86
29433;BME280;16405;53.964;13.448;2023-04-02T01:27:25;101242.59;;;1.68;78.60
29433;BME280;16405;53.964;13.448;2023-04-02T01:29:56;101240.88;;;1.59;77.73
29433;BME280;16405;53.964;13.448;2023-04-02T01:32:33;101246.94;;;1.58;77.77
29433;BME280;16405;53.964;13.448;2023-04-02T01:34:59;101242.63;;;1.56;77.09
29433;BME280;16405;53.964;13.448;2023-04-02T01:43:54;101254.72;;;1.63;78.15
29433;BME280;16405;53.964;13.448;2023-04-02T01:46:30;101272.00;;;1.64;78.13
29433;BME280;16405;53.964;13.448;2023-04-02T01:49:20;101266.84;;;1.69;78.96
29433;BME280;16405;53.964;13.448;2023-04-02T01:51:54;101273.72;;;1.68;79.04
29433;BME280;16405;53.964;13.448;2023-04-02T01:54:22;101285.88;;;1.69;79.47
29433;BME280;16405;53.964;13.448;2023-04-02T01:56:49;101285.84;;;1.80;79.53
29433;BME280;16405;53.964;13.448;2023-04-02T01:59:31;101292.78;;;1.84;79.77
29433;BME280;16405;53.964;13.448;2023-04-02T02:02:05;101298.84;;;1.86;79.77
29433;BME280;16405;53.964;13.448;2023-04-02T02:04:34;101298.81;;;1.88;80.37
29433;BME280;16405;53.964;13.448;2023-04-02T02:07:03;101300.53;;;1.99;80.45
29433;BME280;16405;53.964;13.448;2023-04-02T02:09:35;101304.88;;;1.97;80.52
29433;BME280;16405;53.964;13.448;2023-04-02T02:12:02;101310.06;;;1.99;80.55
29433;BME280;16405;53.964;13.448;2023-04-02T02:14:35;101312.63;;;2.07;81.11
29433;BME280;16405;53.964;13.448;2023-04-02T02:17:02;101310.91;;;2.05;81.22
29433;BME280;16405;53.964;13.448;2023-04-02T02:22:27;101316.97;;;2.03;80.51
29433;BME280;16405;53.964;13.448;2023-04-02T02:25:02;101325.63;;;2.05;80.41
29433;BME280;16405;53.964;13.448;2023-04-02T02:27:47;101323.91;;;2.04;79.87
29433;BME280;16405;53.964;13.448;2023-04-02T02:30:43;101331.72;;;2.01;79.61
29433;BME280;16405;53.964;13.448;2023-04-02T02:33:23;101328.22;;;2.02;79.74
29433;BME280;16405;53.964;13.448;2023-04-02T02:36:04;101340.34;;;2.06;79.89
29433;BME280;16405;53.964;13.448;2023-04-02T02:42:07;101336.88;;;1.98;79.29
29433;BME280;16405;53.964;13.448;2023-04-02T02:46:52;101353.34;;;2.08;78.90
29433;BME280;16405;53.964;13.448;2023-04-02T02:49:32;101359.41;;;2.08;78.98
29433;BME280;16405;53.964;13.448;2023-04-02T02:52:35;101369.78;;;2.19;78.98
29433;BME280;16405;53.964;13.448;2023-04-02T02:55:19;101374.97;;;2.13;79.17
29433;BME280;16405;53.964;13.448;2023-04-02T02:57:57;101387.97;;;2.11;79.07
29433;BME280;16405;53.964;13.448;2023-04-02T03:00:29;101382.78;;;2.02;79.00
29433;BME280;16405;53.964;13.448;2023-04-02T03:02:56;101394.03;;;2.07;78.89
29433;BME280;16405;53.964;13.448;2023-04-02T03:05:32;101395.78;;;2.10;78.63
29433;BME280;16405;53.964;13.448;2023-04-02T03:08:02;101400.09;;;2.08;78.68
29433;BME280;16405;53.964;13.448;2023-04-02T03:11:01;101389.72;;;2.06;78.87
29433;BME280;16405;53.964;13.448;2023-04-02T03:13:33;101394.91;;;2.11;79.08
29433;BME280;16405;53.964;13.448;2023-04-02T03:16:26;101400.09;;;2.06;78.91
29433;BME280;16405;53.964;13.448;2023-04-02T03:19:05;101405.28;;;2.09;79.56
29433;BME280;16405;53.964;13.448;2023-04-02T03:21:39;101400.97;;;2.10;79.66
29433;BME280;16405;53.964;13.448;2023-04-02T03:27:33;101413.94;;;2.08;79.32
29433;BME280;16405;53.964;13.448;2023-04-02T03:32:46;101416.53;;;2.07;79.08
29433;BME280;16405;53.964;13.448;2023-04-02T03:35:34;101428.66;;;2.11;78.81
29433;BME280;16405;53.964;13.448;2023-04-02T03:38:29;101435.59;;;2.13;78.33
29433;BME280;16405;53.964;13.448;2023-04-02T03:41:30;101442.50;;;2.05;77.94
29433;BME280;16405;53.964;13.448;2023-04-02T03:44:02;101447.72;;;2.05;77.45
29433;BME280;16405;53.964;13.448;2023-04-02T03:47:02;101451.16;;;2.07;77.63
29433;BME280;16405;53.964;13.448;2023-04-02T03:50:07;101459.00;;;2.01;76.99
29433;BME280;16405;53.964;13.448;2023-04-02T03:52:46;101460.69;;;2.05;76.98
29433;BME280;16405;53.964;13.448;2023-04-02T03:55:29;101472.81;;;2.03;76.79
29433;BME280;16405;53.964;13.448;2023-04-02T04:01:38;101476.28;;;1.93;76.29
29433;BME280;16405;53.964;13.448;2023-04-02T04:04:16;101485.81;;;1.94;76.13
29433;BME280;16405;53.964;13.448;2023-04-02T04:06:54;101489.25;;;1.94;75.86
29433;BME280;16405;53.964;13.448;2023-04-02T04:09:36;101493.59;;;1.88;75.72
29433;BME280;16405;53.964;13.448;2023-04-02T04:14:44;101516.94;;;1.83;75.30
29433;BME280;16405;53.964;13.448;2023-04-02T04:20:35;101514.38;;;1.84;75.51
29433;BME280;16405;53.964;13.448;2023-04-02T04:23:37;101515.25;;;1.91;75.89
29433;BME280;16405;53.964;13.448;2023-04-02T04:26:25;101518.69;;;1.92;75.67
29433;BME280;16405;53.964;13.448;2023-04-02T04:32:26;101542.09;;;2.04;76.62
29433;BME280;16405;53.964;13.448;2023-04-02T04:35:23;101537.75;;;1.95;76.92
29433;BME280;16405;53.964;13.448;2023-04-02T04:38:18;101539.50;;;2.02;76.86
29433;BME280;16405;53.964;13.448;2023-04-02T04:41:17;101549.00;;;1.96;76.14
29433;BME280;16405;53.964;13.448;2023-04-02T04:43:57;101548.16;;;2.00;75.65
29433;BME280;16405;53.964;13.448;2023-04-02T04:46:39;101550.75;;;2.09;75.63
29433;BME280;16405;53.964;13.448;2023-04-02T04:49:24;101553.38;;;2.11;76.06
29433;BME280;16405;53.964;13.448;2023-04-02T04:54:53;101567.25;;;2.14;75.98
29433;BME280;16405;53.964;13.448;2023-04-02T04:57:35;101562.03;;;2.17;76.69
29433;BME280;16405;53.964;13.448;2023-04-02T05:03:07;101576.78;;;2.17;76.78
29433;BME280;16405;53.964;13.448;2023-04-02T05:05:38;101593.25;;;2.20;76.93
29433;BME280;16405;53.964;13.448;2023-04-02T05:08:14;101581.94;;;2.09;75.98
29433;BME280;16405;53.964;13.448;2023-04-02T05:10:51;101581.94;;;2.06;75.51
29433;BME280;16405;53.964;13.448;2023-04-02T05:16:44;101593.19;;;2.07;74.31
29433;BME280;16405;53.964;13.448;2023-04-02T05:23:14;101602.78;;;2.18;74.54
29433;BME280;16405;53.964;13.448;2023-04-02T05:28:59;101607.13;;;2.27;75.75
29433;BME280;16405;53.964;13.448;2023-04-02T05:31:44;101620.97;;;2.29;76.35
29433;BME280;16405;53.964;13.448;2023-04-02T05:34:24;101622.72;;;2.27;76.46
29433;BME280;16405;53.964;13.448;2023-04-02T05:36:52;101627.91;;;2.35;76.93
29433;BME280;16405;53.964;13.448;2023-04-02T05:39:25;101639.16;;;2.37;77.42
29433;BME280;16405;53.964;13.448;2023-04-02T05:42:04;101633.09;;;2.44;77.54
29433;BME280;16405;53.964;13.448;2023-04-02T05:44:37;101634.00;;;2.49;77.74
29433;BME280;16405;53.964;13.448;2023-04-02T05:47:13;101652.22;;;2.55;77.06
29433;BME280;16405;53.964;13.448;2023-04-02T05:50:15;101654.81;;;2.58;77.30
29433;BME280;16405;53.964;13.448;2023-04-02T05:52:51;101663.47;;;2.56;78.23
29433;BME280;16405;53.964;13.448;2023-04-02T05:55:43;101663.47;;;2.42;78.90
29433;BME280;16405;53.964;13.448;2023-04-02T06:01:39;101691.22;;;2.55;78.87
29433;BME280;16405;53.964;13.448;2023-04-02T06:04:35;101684.25;;;2.53;77.25
29433;BME280;16405;53.964;13.448;2023-04-02T06:07:28;101698.13;;;2.56;75.54
29433;BME280;16405;53.964;13.448;2023-04-02T06:15:16;101712.00;;;2.67;74.80
29433;BME280;16405;53.964;13.448;2023-04-02T06:18:03;101707.69;;;2.66;75.09
29433;BME280;16405;53.964;13.448;2023-04-02T06:20:31;101726.75;;;2.67;74.79
29433;BME280;16405;53.964;13.448;2023-04-02T06:23:10;101720.69;;;2.66;74.75
29433;BME280;16405;53.964;13.448;2023-04-02T06:25:47;101725.03;;;2.78;76.01
29433;BME280;16405;53.964;13.448;2023-04-02T06:33:49;101744.16;;;2.97;77.16
29433;BME280;16405;53.964;13.448;2023-04-02T06:36:19;101751.97;;;3.00;77.02
29433;BME280;16405;53.964;13.448;2023-04-02T06:38:56;101749.34;;;2.93;76.13
29433;BME280;16405;53.964;13.448;2023-04-02T06:41:24;101752.81;;;2.88;74.28
29433;BME280;16405;53.964;13.448;2023-04-02T06:44:20;101755.41;;;2.87;73.62
29433;BME280;16405;53.964;13.448;2023-04-02T06:47:03;101777.91;;;2.74;73.13
29433;BME280;16405;53.964;13.448;2023-04-02T06:49:55;101764.94;;;2.77;73.75
29433;BME280;16405;53.964;13.448;2023-04-02T06:52:51;101784.03;;;2.95;74.44
29433;BME280;16405;53.964;13.448;2023-04-02T06:55:54;101789.25;;;2.92;75.77
29433;BME280;16405;53.964;13.448;2023-04-02T06:58:23;101790.09;;;2.95;77.21
29433;BME280;16405;53.964;13.448;2023-04-02T07:00:50;101797.06;;;3.10;77.98
29433;BME280;16405;53.964;13.448;2023-04-02T07:03:25;101788.41;;;3.28;78.12
29433;BME280;16405;53.964;13.448;2023-04-02T07:05:52;101793.63;;;3.31;78.02
29433;BME280;16405;53.964;13.448;2023-04-02T07:08:18;101809.25;;;3.31;78.77
29433;BME280;16405;53.964;13.448;2023-04-02T07:10:52;101810.97;;;3.17;78.44
29433;BME280;16405;53.964;13.448;2023-04-02T07:13:21;101810.97;;;3.21;79.17
29433;BME280;16405;53.964;13.448;2023-04-02T07:15:55;101805.75;;;3.17;78.96
29433;BME280;16405;53.964;13.448;2023-04-02T07:18:35;101819.66;;;3.19;79.58
29433;BME280;16405;53.964;13.448;2023-04-02T07:21:01;101823.13;;;3.36;79.68
29433;BME280;16405;53.964;13.448;2023-04-02T07:23:27;101822.25;;;3.23;79.70
29433;BME280;16405;53.964;13.448;2023-04-02T07:25:54;101833.53;;;3.27;79.84
29433;BME280;16405;53.964;13.448;2023-04-02T07:28:30;101827.47;;;3.25;80.14
29433;BME280;16405;53.964;13.448;2023-04-02T07:30:56;101837.84;;;3.14;80.96
29433;BME280;16405;53.964;13.448;2023-04-02T07:33:26;101833.53;;;3.12;80.91
29433;BME280;16405;53.964;13.448;2023-04-02T07:35:59;101845.69;;;3.36;81.35
29433;BME280;16405;53.964;13.448;2023-04-02T07:38:25;101846.56;;;3.41;80.93
29433;BME280;16405;53.964;13.448;2023-04-02T07:40:51;101849.19;;;3.39;80.22
29433;BME280;16405;53.964;13.448;2023-04-02T07:43:19;101856.09;;;3.16;80.64
29433;BME280;16405;53.964;13.448;2023-04-02T07:45:49;101859.50;;;2.99;82.87
29433;BME280;16405;53.964;13.448;2023-04-02T07:48:15;101863.81;;;2.96;84.14
29433;BME280;16405;53.964;13.448;2023-04-02T07:50:41;101863.03;;;3.23;85.37
29433;BME280;16405;53.964;13.448;2023-04-02T07:53:38;101872.63;;;3.68;84.01
29433;BME280;16405;53.964;13.448;2023-04-02T07:56:12;101883.03;;;3.90;82.83
29433;BME280;16405;53.964;13.448;2023-04-02T07:58:38;101877.00;;;3.80;81.54
29433;BME280;16405;53.964;13.448;2023-04-02T08:01:10;101883.91;;;3.66;80.72
29433;BME280;16405;53.964;13.448;2023-04-02T08:03:38;101885.66;;;3.68;80.43
29433;BME280;16405;53.964;13.448;2023-04-02T08:06:04;101885.66;;;3.79;80.33
29433;BME280;16405;53.964;13.448;2023-04-02T08:08:31;101885.66;;;3.96;78.63
29433;BME280;16405;53.964;13.448;2023-04-02T08:10:56;101910.81;;;4.32;78.44
29433;BME280;16405;53.964;13.448;2023-04-02T08:13:22;101904.59;;;4.80;77.05
29433;BME280;16405;53.964;13.448;2023-04-02T08:15:57;101921.06;;;4.96;75.84
29433;BME280;16405;53.964;13.448;2023-04-02T08:18:23;101917.66;;;4.70;75.95
29433;BME280;16405;53.964;13.448;2023-04-02T08:20:49;101931.66;;;4.39;76.35
29433;BME280;16405;53.964;13.448;2023-04-02T08:23:15;101933.41;;;4.40;76.99
29433;BME280;16405;53.964;13.448;2023-04-02T08:25:47;101942.91;;;4.73;77.77
29433;BME280;16405;53.964;13.448;2023-04-02T08:28:13;101929.91;;;4.42;76.58
29433;BME280;16405;53.964;13.448;2023-04-02T08:30:40;101925.59;;;4.30;76.86
29433;BME280;16405;53.964;13.448;2023-04-02T08:33:06;101936.03;;;4.30;76.96
29433;BME280;16405;53.964;13.448;2023-04-02T08:35:32;101940.34;;;4.33;76.41
29433;BME280;16405;53.964;13.448;2023-04-02T08:38:05;101952.53;;;4.22;76.05
29433;BME280;16405;53.964;13.448;2023-04-02T08:40:36;101955.13;;;4.39;75.36
29433;BME280;16405;53.964;13.448;2023-04-02T08:49:19;101961.13;;;4.81;72.80
29433;BME280;16405;53.964;13.448;2023-04-02T08:51:58;101970.56;;;5.25;72.56
29433;BME280;16405;53.964;13.448;2023-04-02T08:54:32;101968.84;;;5.11;72.84
29433;BME280;16405;53.964;13.448;2023-04-02T08:57:41;101975.91;;;4.79;71.90
29433;BME280;16405;53.964;13.448;2023-04-02T09:00:34;101989.72;;;5.11;73.07
29433;BME280;16405;53.964;13.448;2023-04-02T09:06:03;101986.75;;;5.82;69.31
29433;BME280;16405;53.964;13.448;2023-04-02T09:08:32;102011.28;;;6.75;68.91
29433;BME280;16405;53.964;13.448;2023-04-02T09:11:34;102004.69;;;6.36;67.81
29433;BME280;16405;53.964;13.448;2023-04-02T09:14:15;102003.88;;;6.26;68.18
29433;BME280;16405;53.964;13.448;2023-04-02T09:16:56;101997.13;;;5.99;68.19
29433;BME280;16405;53.964;13.448;2023-04-02T09:19:39;102003.19;;;6.06;68.64
29433;BME280;16405;53.964;13.448;2023-04-02T09:22:15;102011.13;;;5.86;68.78
29433;BME280;16405;53.964;13.448;2023-04-02T09:24:44;102004.31;;;5.60;70.15
29433;BME280;16405;53.964;13.448;2023-04-02T09:27:29;101999.31;;;5.09;69.90
29433;BME280;16405;53.964;13.448;2023-04-02T09:33:17;102001.84;;;5.34;71.09
29433;BME280;16405;53.964;13.448;2023-04-02T09:36:04;102014.06;;;5.26;68.36
29433;BME280;16405;53.964;13.448;2023-04-02T09:38:38;102015.84;;;5.14;67.48
29433;BME280;16405;53.964;13.448;2023-04-02T09:41:20;102028.81;;;5.36;67.21
29433;BME280;16405;53.964;13.448;2023-04-02T09:46:57;102042.44;;;6.00;65.88
29433;BME280;16405;53.964;13.448;2023-04-02T09:49:37;102048.53;;;6.02;68.34
29433;BME280;16405;53.964;13.448;2023-04-02T09:52:32;102048.66;;;5.77;68.39
29433;BME280;16405;53.964;13.448;2023-04-02T09:57:39;102068.63;;;5.89;66.79
29433;BME280;16405;53.964;13.448;2023-04-02T10:00:27;102073.78;;;6.04;66.72
29433;BME280;16405;53.964;13.448;2023-04-02T10:03:23;102070.44;;;5.76;66.99
29433;BME280;16405;53.964;13.448;2023-04-02T10:06:11;102072.25;;;5.57;67.02
29433;BME280;16405;53.964;13.448;2023-04-02T10:08:43;102078.28;;;5.71;68.35
29433;BME280;16405;53.964;13.448;2023-04-02T10:11:44;102075.81;;;5.42;69.27
29433;BME280;16405;53.964;13.448;2023-04-02T10:14:36;102093.94;;;5.79;70.55
29433;BME280;16405;53.964;13.448;2023-04-02T10:17:19;102094.81;;;5.81;67.42
29433;BME280;16405;53.964;13.448;2023-04-02T10:19:58;102088.78;;;5.59;65.79
29433;BME280;16405;53.964;13.448;2023-04-02T10:22:33;102095.72;;;5.69;66.38
29433;BME280;16405;53.964;13.448;2023-04-02T10:25:04;102099.97;;;6.01;67.75
29433;BME280;16405;53.964;13.448;2023-04-02T10:31:24;102104.09;;;6.38;67.71
29433;BME280;16405;53.964;13.448;2023-04-02T10:34:18;102111.22;;;6.11;67.50
29433;BME280;16405;53.964;13.448;2023-04-02T10:36:57;102112.91;;;6.20;68.89
29433;BME280;16405;53.964;13.448;2023-04-02T10:43:29;102125.97;;;6.29;68.47
29433;BME280;16405;53.964;13.448;2023-04-02T10:45:54;102127.84;;;5.93;69.28
29433;BME280;16405;53.964;13.448;2023-04-02T10:48:43;102127.94;;;5.76;69.11
29433;BME280;16405;53.964;13.448;2023-04-02T10:51:39;102127.72;;;6.24;69.39
29433;BME280;16405;53.964;13.448;2023-04-02T11:00:16;102150.22;;;6.48;64.80
29433;BME280;16405;53.964;13.448;2023-04-02T11:03:13;102143.22;;;6.50;66.34
29433;BME280;16405;53.964;13.448;2023-04-02T11:05:50;102153.84;;;6.28;65.57
29433;BME280;16405;53.964;13.448;2023-04-02T11:08:47;102154.66;;;6.40;66.09
29433;BME280;16405;53.964;13.448;2023-04-02T11:11:27;102159.06;;;6.28;66.14
29433;BME280;16405;53.964;13.448;2023-04-02T11:14:24;102173.97;;;6.17;65.78
29433;BME280;16405;53.964;13.448;2023-04-02T11:16:55;102181.75;;;6.31;65.31
29433;BME280;16405;53.964;13.448;2023-04-02T11:19:32;102183.50;;;6.26;64.54
29433;BME280;16405;53.964;13.448;2023-04-02T11:22:21;102181.94;;;5.82;65.10
29433;BME280;16405;53.964;13.448;2023-04-02T11:24:51;102185.38;;;5.91;66.05
29433;BME280;16405;53.964;13.448;2023-04-02T11:27:32;102192.31;;;6.09;65.98
29433;BME280;16405;53.964;13.448;2023-04-02T11:30:24;102197.56;;;6.00;66.35
29433;BME280;16405;53.964;13.448;2023-04-02T11:32:51;102188.00;;;5.88;66.03
29433;BME280;16405;53.964;13.448;2023-04-02T11:40:58;102212.41;;;5.98;67.97
29433;BME280;16405;53.964;13.448;2023-04-02T11:49:55;102231.41;;;6.39;65.55
29433;BME280;16405;53.964;13.448;2023-04-02T11:55:29;102229.03;;;5.65;66.58
29433;BME280;16405;53.964;13.448;2023-04-02T12:01:52;102249.00;;;6.01;66.42
29433;BME280;16405;53.964;13.448;2023-04-02T12:05:05;102252.50;;;5.79;66.80
29433;BME280;16405;53.964;13.448;2023-04-02T12:10:21;102263.88;;;5.74;66.16
29433;BME280;16405;53.964;13.448;2023-04-02T12:12:48;102282.13;;;5.88;65.76
29433;BME280;16405;53.964;13.448;2023-04-02T12:15:45;102279.53;;;5.79;64.99
29433;BME280;16405;53.964;13.448;2023-04-02T12:18:20;102289.09;;;5.79;65.29
29433;BME280;16405;53.964;13.448;2023-04-02T12:20:53;102263.91;;;5.58;65.96
29433;BME280;16405;53.964;13.448;2023-04-02T12:23:34;102273.44;;;5.63;67.12
29433;BME280;16405;53.964;13.448;2023-04-02T12:26:06;102269.97;;;5.69;66.50
29433;BME280;16405;53.964;13.448;2023-04-02T12:28:33;102285.59;;;6.13;67.20
29433;BME280;16405;53.964;13.448;2023-04-02T12:33:38;102289.94;;;5.91;65.26
29433;BME280;16405;53.964;13.448;2023-04-02T12:36:25;102298.75;;;5.55;64.65
29433;BME280;16405;53.964;13.448;2023-04-02T12:38:57;102290.84;;;5.66;64.77
29433;BME280;16405;53.964;13.448;2023-04-02T12:41:25;102290.91;;;5.44;64.51
29433;BME280;16405;53.964;13.448;2023-04-02T12:44:05;102292.63;;;5.24;63.30
29433;BME280;16405;53.964;13.448;2023-04-02T12:46:34;102294.34;;;5.09;62.89
29433;BME280;16405;53.964;13.448;2023-04-02T12:51:56;102291.75;;;5.37;64.37
29433;BME280;16405;53.964;13.448;2023-04-02T12:54:22;102284.81;;;5.21;64.33
29433;BME280;16405;53.964;13.448;2023-04-02T12:56:49;102298.72;;;5.13;64.77
29433;BME280;16405;53.964;13.448;2023-04-02T12:59:35;102301.31;;;5.04;64.35
29433;BME280;16405;53.964;13.448;2023-04-02T13:02:24;102320.50;;;5.29;64.44
29433;BME280;16405;53.964;13.448;2023-04-02T13:04:55;102327.44;;;5.76;65.56
29433;BME280;16405;53.964;13.448;2023-04-02T13:07:30;102316.97;;;4.98;62.34
29433;BME280;16405;53.964;13.448;2023-04-02T13:10:20;102323.06;;;5.11;62.34
29433;BME280;16405;53.964;13.448;2023-04-02T13:12:47;102324.75;;;4.87;63.04
29433;BME280;16405;53.964;13.448;2023-04-02T13:15:30;102320.47;;;5.09;64.84
29433;BME280;16405;53.964;13.448;2023-04-02T13:20:48;102336.09;;;4.96;64.17
29433;BME280;16405;53.964;13.448;2023-04-02T13:23:35;102350.09;;;5.31;64.47
29433;BME280;16405;53.964;13.448;2023-04-02T13:26:27;102345.72;;;5.29;63.88
29433;BME280;16405;53.964;13.448;2023-04-02T13:31:27;102348.22;;;4.81;61.86
29433;BME280;16405;53.964;13.448;2023-04-02T13:33:53;102357.03;;;5.12;62.07
29433;BME280;16405;53.964;13.448;2023-04-02T13:36:19;102365.78;;;5.51;62.26
29433;BME280;16405;53.964;13.448;2023-04-02T13:38:50;102364.91;;;5.92;61.75
29433;BME280;16405;53.964;13.448;2023-04-02T13:41:30;102350.09;;;5.78;61.83
29433;BME280;16405;53.964;13.448;2023-04-02T13:44:03;102360.53;;;5.39;61.82
29433;BME280;16405;53.964;13.448;2023-04-02T13:46:35;102359.66;;;5.26;61.81
29433;BME280;16405;53.964;13.448;2023-04-02T13:49:01;102370.13;;;5.29;61.28
29433;BME280;16405;53.964;13.448;2023-04-02T13:51:58;102369.28;;;5.73;63.14
29433;BME280;16405;53.964;13.448;2023-04-02T13:57:08;102372.78;;;5.77;63.42
29433;BME280;16405;53.964;13.448;2023-04-02T13:59:41;102364.03;;;5.66;63.67
29433;BME280;16405;53.964;13.448;2023-04-02T14:02:19;102366.66;;;5.43;63.63
29433;BME280;16405;53.964;13.448;2023-04-02T14:05:16;102368.34;;;5.18;64.70
29433;BME280;16405;53.964;13.448;2023-04-02T14:17:33;102369.19;;;5.07;63.04
29433;BME280;16405;53.964;13.448;2023-04-02T14:31:33;102381.94;;;4.30;62.74
29433;BME280;16405;53.964;13.448;2023-04-02T14:37:15;102395.84;;;4.32;63.57
29433;BME280;16405;53.964;13.448;2023-04-02T14:43:03;102402.03;;;4.53;64.11
29433;BME280;16405;53.964;13.448;2023-04-02T14:46:00;102415.25;;;4.90;65.13
29433;BME280;16405;53.964;13.448;2023-04-02T14:49:23;102439.72;;;5.15;64.39
29433;BME280;16405;53.964;13.448;2023-04-02T14:52:04;102435.38;;;5.17;63.89
29433;BME280;16405;53.964;13.448;2023-04-02T14:57:04;102438.78;;;4.93;63.71
29433;BME280;16405;53.964;13.448;2023-04-02T15:07:58;102447.63;;;5.41;63.25
29433;BME280;16405;53.964;13.448;2023-04-02T15:10:38;102440.63;;;5.19;63.19
29433;BME280;16405;53.964;13.448;2023-04-02T15:13:20;102444.03;;;5.02;62.42
29433;BME280;16405;53.964;13.448;2023-04-02T15:16:02;102456.25;;;5.12;62.75
29433;BME280;16405;53.964;13.448;2023-04-02T15:18:30;102435.06;;;4.51;62.94
29433;BME280;16405;53.964;13.448;2023-04-02T15:32:35;102469.22;;;4.89;64.58
29433;BME280;16405;53.964;13.448;2023-04-02T15:35:41;102467.56;;;5.08;64.76
29433;BME280;16405;53.964;13.448;2023-04-02T15:38:41;102469.28;;;5.03;65.08
29433;BME280;16405;53.964;13.448;2023-04-02T15:44:07;102470.00;;;4.71;63.69
29433;BME280;16405;53.964;13.448;2023-04-02T15:50:00;102483.91;;;4.72;66.31
29433;BME280;16405;53.964;13.448;2023-04-02T15:53:00;102491.78;;;4.81;66.19
29433;BME280;16405;53.964;13.448;2023-04-02T15:55:48;102478.59;;;4.54;65.38
29433;BME280;16405;53.964;13.448;2023-04-02T16:01:44;102487.84;;;4.16;65.44
29433;BME280;16405;53.964;13.448;2023-04-02T16:07:49;102484.25;;;4.00;67.09
29433;BME280;16405;53.964;13.448;2023-04-02T16:10:39;102490.13;;;3.79;67.00
29433;BME280;16405;53.964;13.448;2023-04-02T16:13:30;102498.91;;;3.87;67.83
29433;BME280;16405;53.964;13.448;2023-04-02T16:16:21;102504.09;;;3.86;68.51
29433;BME280;16405;53.964;13.448;2023-04-02T16:22:29;102507.63;;;3.93;69.13
29433;BME280;16405;53.964;13.448;2023-04-02T16:25:18;102512.78;;;3.85;68.51
29433;BME280;16405;53.964;13.448;2023-04-02T16:30:49;102519.38;;;3.51;68.79
29433;BME280;16405;53.964;13.448;2023-04-02T16:33:59;102519.25;;;3.40;69.88
29433;BME280;16405;53.964;13.448;2023-04-02T16:36:53;102536.53;;;3.33;71.03
29433;BME280;16405;53.964;13.448;2023-04-02T16:39:44;102534.75;;;3.29;70.48
29433;BME280;16405;53.964;13.448;2023-04-02T16:48:43;102538.59;;;2.93;71.53
29433;BME280;16405;53.964;13.448;2023-04-02T16:51:39;102548.94;;;2.88;72.05
29433;BME280;16405;53.964;13.448;2023-04-02T16:54:42;102552.31;;;2.83;72.48
29433;BME280;16405;53.964;13.448;2023-04-02T17:00:46;102555.59;;;2.68;71.22
29433;BME280;16405;53.964;13.448;2023-04-02T17:09:47;102570.91;;;2.53;72.14
29433;BME280;16405;53.964;13.448;2023-04-02T17:12:31;102580.41;;;2.49;72.93
29433;BME280;16405;53.964;13.448;2023-04-02T17:15:38;102576.84;;;2.44;73.64
29433;BME280;16405;53.964;13.448;2023-04-02T17:18:23;102574.03;;;2.30;73.57
29433;BME280;16405;53.964;13.448;2023-04-02T17:20:50;102579.06;;;2.21;73.70
29433;BME280;16405;53.964;13.448;2023-04-02T17:23:18;102575.56;;;2.19;73.63
29433;BME280;16405;53.964;13.448;2023-04-02T17:25:54;102578.03;;;2.11;73.52
29433;BME280;16405;53.964;13.448;2023-04-02T17:28:30;102591.72;;;2.02;73.07
29433;BME280;16405;53.964;13.448;2023-04-02T17:31:16;102590.88;;;2.03;72.75
29433;BME280;16405;53.964;13.448;2023-04-02T17:33:43;102587.25;;;1.95;72.98
29433;BME280;16405;53.964;13.448;2023-04-02T17:39:21;102601.63;;;1.76;72.88
29433;BME280;16405;53.964;13.448;2023-04-02T18:08:07;102621.34;;;1.26;75.54
29433;BME280;16405;53.964;13.448;2023-04-02T18:11:00;102625.44;;;1.16;77.46
29433;BME280;16405;53.964;13.448;2023-04-02T18:13:41;102632.25;;;1.12;79.44